Time;durP1;ratioP1;P1;durP2;ratioP2;P2;SDS_P1;SDS_P2;PMS_P1;PMS_P2;Temp;Humidity;BMP_temperature;BMP_pressure;BME280_temperature;BME280_humidity;BME280_pressure;Samples;Min_cycle;Max_cycle;Signal;HPM_P1;HPM_P2
2023/05/12 00:01:15;;;;;;;5.55;3.42;;;12.70;37.10;;;;;;5108617;28;20031;-48
2023/05/12 00:03:40;;;;;;;5.57;3.25;;;12.60;37.10;;;;;;5085884;28;20044;-50
2023/05/12 00:06:06;;;;;;;6.20;3.70;;;12.50;38.70;;;;;;5104893;28;20039;-51
2023/05/12 00:08:32;;;;;;;5.78;2.92;;;12.50;39.00;;;;;;5087487;28;20596;-51
2023/05/12 00:10:58;;;;;;;8.02;3.90;;;12.40;38.90;;;;;;5108547;28;20083;-51
2023/05/12 00:13:23;;;;;;;4.93;3.08;;;12.30;38.90;;;;;;5087481;28;20454;-50
2023/05/12 00:15:50;;;;;;;8.98;3.88;;;12.20;40.30;;;;;;5108377;28;20028;-54
2023/05/12 00:18:16;;;;;;;4.57;2.92;;;12.20;40.70;;;;;;5087183;28;20411;-54
2023/05/12 00:20:41;;;;;;;5.15;3.35;;;12.10;41.00;;;;;;5106899;28;20020;-52
2023/05/12 00:23:06;;;;;;;7.85;3.30;;;12.00;43.20;;;;;;5087236;28;20044;-54
2023/05/12 00:25:32;;;;;;;4.00;3.20;;;12.00;42.80;;;;;;5101382;28;20514;-50
2023/05/12 00:27:58;;;;;;;6.50;3.88;;;11.90;43.10;;;;;;5098960;28;20036;-53
2023/05/12 00:30:24;;;;;;;5.32;3.50;;;11.90;44.30;;;;;;5089094;28;20032;-51
2023/05/12 00:32:50;;;;;;;6.63;3.63;;;11.80;44.00;;;;;;5097388;28;20032;-53
2023/05/12 00:35:16;;;;;;;6.13;3.60;;;11.90;45.90;;;;;;5110654;28;20073;-52
2023/05/12 00:37:42;;;;;;;5.07;3.50;;;11.80;46.10;;;;;;5100856;28;20084;-54
2023/05/12 00:40:08;;;;;;;4.93;3.40;;;11.80;48.30;;;;;;5092770;28;20491;-54
2023/05/12 00:42:36;;;;;;;6.22;3.83;;;11.80;45.80;;;;;;5109741;28;20035;-54
2023/05/12 00:45:03;;;;;;;6.40;4.05;;;11.70;48.40;;;;;;5092646;28;20036;-52
2023/05/12 00:47:29;;;;;;;6.65;3.90;;;11.70;47.10;;;;;;5109935;28;20032;-53
2023/05/12 00:49:54;;;;;;;7.03;4.10;;;11.70;46.70;;;;;;5092670;28;20043;-51
2023/05/12 00:52:20;;;;;;;7.28;4.07;;;11.70;48.20;;;;;;5109771;28;20034;-54
2023/05/12 00:54:47;;;;;;;6.50;3.67;;;11.70;49.30;;;;;;5112416;28;20020;-54
2023/05/12 00:57:12;;;;;;;4.90;3.42;;;11.60;47.90;;;;;;5096550;28;20024;-54
2023/05/12 00:59:38;;;;;;;7.45;3.65;;;11.60;48.80;;;;;;5112283;28;20050;-51
2023/05/12 01:02:04;;;;;;;4.93;3.22;;;11.50;50.10;;;;;;5095098;28;20047;-54
2023/05/12 01:04:31;;;;;;;7.80;3.40;;;11.40;49.90;;;;;;5112288;28;20020;-53
2023/05/12 01:07:04;;;;;;;7.47;3.70;;;11.40;51.60;;;;;;5090459;28;20032;-54
2023/05/12 01:09:29;;;;;;;8.80;3.97;;;11.40;50.90;;;;;;5112244;28;20103;-54
2023/05/12 01:11:54;;;;;;;7.20;3.80;;;11.30;51.90;;;;;;5093991;28;20551;-54
2023/05/12 01:14:20;;;;;;;8.95;3.47;;;11.30;52.70;;;;;;5112133;28;20035;-52
2023/05/12 01:16:50;;;;;;;9.15;4.22;;;11.20;53.80;;;;;;5092354;28;20526;-50
2023/05/12 01:19:38;;;;;;;6.70;3.72;;;11.20;54.40;;;;;;5111908;28;20039;-50
2023/05/12 01:22:04;;;;;;;6.05;3.55;;;11.20;54.70;;;;;;5078856;28;20051;-54
2023/05/12 01:24:33;;;;;;;9.38;4.25;;;11.10;54.70;;;;;;5111851;28;20047;-52
2023/05/12 01:26:59;;;;;;;6.20;3.45;;;11.10;55.30;;;;;;5090690;28;20259;-54
2023/05/12 01:29:26;;;;;;;5.95;3.80;;;11.00;55.50;;;;;;5091071;28;20547;-53
2023/05/12 01:31:51;;;;;;;5.45;3.97;;;11.00;55.90;;;;;;5108675;28;20036;-53
2023/05/12 01:34:20;;;;;;;11.95;5.32;;;11.00;56.10;;;;;;5110664;28;20088;-50
2023/05/12 01:36:45;;;;;;;7.25;4.18;;;10.90;58.00;;;;;;5090880;28;20035;-50
2023/05/12 01:39:11;;;;;;;6.50;3.85;;;10.90;58.30;;;;;;5110349;28;20020;-52
2023/05/12 01:41:37;;;;;;;5.78;3.83;;;10.90;57.70;;;;;;5090589;28;20431;-53
2023/05/12 01:44:03;;;;;;;5.28;3.80;;;10.90;60.60;;;;;;5110807;28;20032;-54
2023/05/12 01:46:28;;;;;;;9.45;5.00;;;10.80;59.00;;;;;;5091564;28;20130;-52
2023/05/12 01:48:53;;;;;;;7.10;4.57;;;10.90;60.10;;;;;;5109599;28;20036;-53
2023/05/12 01:51:19;;;;;;;6.55;4.63;;;10.80;61.00;;;;;;5091395;28;20039;-53
2023/05/12 01:53:44;;;;;;;6.60;4.15;;;10.80;61.20;;;;;;5089699;28;20039;-52
2023/05/12 01:56:10;;;;;;;6.93;3.92;;;10.80;61.00;;;;;;5110317;28;20024;-52
2023/05/12 01:58:35;;;;;;;7.70;4.50;;;10.80;60.60;;;;;;5089613;28;20531;-52
2023/05/12 02:01:01;;;;;;;9.00;4.20;;;10.70;63.40;;;;;;5110151;28;20028;-51
2023/05/12 02:03:26;;;;;;;5.50;4.35;;;10.70;63.90;;;;;;5088044;28;20418;-51
2023/05/12 02:05:52;;;;;;;5.47;3.80;;;10.70;64.50;;;;;;5092746;28;20024;-49
2023/05/12 02:08:17;;;;;;;5.53;3.80;;;10.60;63.50;;;;;;5093222;28;20040;-53
2023/05/12 02:10:43;;;;;;;7.03;4.50;;;10.60;63.60;;;;;;5110149;28;20487;-51
2023/05/12 02:13:08;;;;;;;10.68;4.35;;;10.60;63.70;;;;;;5089312;28;20119;-54
2023/05/12 02:15:33;;;;;;;9.60;5.05;;;10.60;62.90;;;;;;5110001;28;20040;-50
2023/05/12 02:17:59;;;;;;;7.57;4.38;;;10.60;63.50;;;;;;5089305;28;20367;-54
2023/05/12 02:20:25;;;;;;;8.82;4.10;;;10.60;63.80;;;;;;5110000;28;20080;-51
2023/05/12 02:22:50;;;;;;;8.30;4.05;;;10.50;63.60;;;;;;5089030;28;20024;-49
2023/05/12 02:25:15;;;;;;;8.43;4.55;;;10.50;64.70;;;;;;5105387;28;20060;-53
2023/05/12 02:27:43;;;;;;;6.57;3.80;;;10.50;65.30;;;;;;5098271;28;20411;-53
2023/05/12 02:30:09;;;;;;;12.52;5.18;;;10.50;64.80;;;;;;5090424;28;20479;-52
2023/05/12 02:32:34;;;;;;;7.18;4.93;;;10.60;65.60;;;;;;5107633;28;20083;-53
2023/05/12 02:35:00;;;;;;;9.48;4.88;;;10.50;65.20;;;;;;5090509;28;20040;-51
2023/05/12 02:37:25;;;;;;;8.73;4.43;;;10.50;65.20;;;;;;5107818;28;20032;-54
2023/05/12 02:39:51;;;;;;;12.95;5.03;;;10.50;66.50;;;;;;5090542;28;20090;-55
2023/05/12 02:42:16;;;;;;;7.40;4.03;;;10.50;67.90;;;;;;5107444;28;20026;-53
2023/05/12 02:44:42;;;;;;;8.25;5.05;;;10.40;67.10;;;;;;5110462;28;20074;-51
2023/05/12 02:47:07;;;;;;;8.32;4.63;;;10.40;68.50;;;;;;5093675;28;20035;-54
2023/05/12 02:49:32;;;;;;;9.15;4.22;;;10.40;67.40;;;;;;5110481;28;20076;-49
2023/05/12 02:51:58;;;;;;;5.85;4.10;;;10.40;68.40;;;;;;5092148;28;20023;-53
2023/05/12 02:54:23;;;;;;;7.15;4.78;;;10.30;69.10;;;;;;5108850;28;20034;-53
2023/05/12 02:56:49;;;;;;;7.68;4.65;;;10.20;68.60;;;;;;5090022;28;20039;-52
2023/05/12 02:59:14;;;;;;;7.88;4.50;;;10.20;69.20;;;;;;5109939;28;20024;-54
2023/05/12 03:01:40;;;;;;;6.25;4.30;;;10.20;70.60;;;;;;5089604;28;20408;-52
2023/05/12 03:04:05;;;;;;;6.18;4.28;;;10.10;69.60;;;;;;5109938;28;20047;-53
2023/05/12 03:06:32;;;;;;;6.30;4.07;;;10.10;71.60;;;;;;5081952;28;20020;-51
2023/05/12 03:08:58;;;;;;;6.80;4.30;;;10.10;70.90;;;;;;5108623;28;20026;-53
2023/05/12 03:11:25;;;;;;;5.95;4.30;;;10.10;71.30;;;;;;5089948;28;20141;-53
2023/05/12 03:13:50;;;;;;;9.18;4.85;;;10.00;70.40;;;;;;5087587;28;20392;-50
2023/05/12 03:16:17;;;;;;;7.03;4.13;;;10.00;72.00;;;;;;5106561;28;20144;-52
2023/05/12 03:18:42;;;;;;;6.88;3.97;;;10.00;72.80;;;;;;5104775;28;20005;-52
2023/05/12 03:21:08;;;;;;;10.35;4.45;;;10.00;71.40;;;;;;5107255;28;20023;-54
2023/05/12 03:23:34;;;;;;;10.18;4.50;;;10.00;72.00;;;;;;5101376;28;20042;-52
2023/05/12 03:25:59;;;;;;;7.20;4.40;;;10.00;71.50;;;;;;5098040;28;20594;-53
2023/05/12 03:28:25;;;;;;;8.27;4.82;;;10.00;73.20;;;;;;5095597;28;20151;-54
2023/05/12 03:30:50;;;;;;;8.15;5.20;;;9.90;72.70;;;;;;5108633;28;20101;-55
2023/05/12 03:33:16;;;;;;;9.02;5.18;;;10.00;74.20;;;;;;5088071;28;20059;-52
2023/05/12 03:35:41;;;;;;;9.75;5.13;;;10.00;74.20;;;;;;5089150;28;20024;-53
2023/05/12 03:38:07;;;;;;;6.43;4.18;;;10.00;73.00;;;;;;5086053;28;20064;-50
2023/05/12 03:40:32;;;;;;;6.95;4.60;;;10.00;72.60;;;;;;5067844;28;20028;-54
2023/05/12 03:42:58;;;;;;;9.65;4.80;;;10.00;73.40;;;;;;5106829;28;20398;-53
2023/05/12 03:45:23;;;;;;;9.45;4.68;;;10.00;73.60;;;;;;5083648;28;20055;-53
2023/05/12 03:47:48;;;;;;;7.43;4.90;;;10.10;74.00;;;;;;5087410;28;20082;-55
2023/05/12 03:50:14;;;;;;;11.15;5.57;;;10.10;73.90;;;;;;5090329;28;20534;-53
2023/05/12 03:52:40;;;;;;;10.15;5.15;;;10.20;73.40;;;;;;5107839;28;20024;-50
2023/05/12 03:55:06;;;;;;;11.27;4.93;;;10.20;73.40;;;;;;5086747;28;20024;-53
2023/05/12 03:57:33;;;;;;;8.85;4.75;;;10.30;72.50;;;;;;5107627;28;20445;-58
2023/05/12 03:59:59;;;;;;;7.88;4.85;;;10.40;72.00;;;;;;5087048;28;20028;-59
2023/05/12 04:02:25;;;;;;;11.07;5.25;;;10.50;71.20;;;;;;5092009;28;20565;-59
2023/05/12 04:04:50;;;;;;;7.60;4.93;;;10.70;69.90;;;;;;5088274;28;20271;-58
2023/05/12 04:07:16;;;;;;;8.57;5.18;;;11.30;66.90;;;;;;5107894;28;20095;-59
2023/05/12 04:09:42;;;;;;;8.40;4.60;;;11.80;63.60;;;;;;5089999;28;20032;-58
2023/05/12 04:12:08;;;;;;;12.60;5.30;;;12.30;60.40;;;;;;5113728;28;20499;-59
2023/05/12 04:14:34;;;;;;;10.15;5.38;;;12.70;57.40;;;;;;5093670;28;20032;-59
2023/05/12 04:16:59;;;;;;;6.43;4.13;;;13.20;54.80;;;;;;5091120;28;20035;-59
2023/05/12 04:19:25;;;;;;;6.30;4.03;;;13.80;53.40;;;;;;5112550;28;20023;-58
2023/05/12 04:21:51;;;;;;;7.40;4.18;;;14.30;50.70;;;;;;5091423;28;20028;-58
2023/05/12 04:24:16;;;;;;;11.00;5.05;;;14.80;50.00;;;;;;5112357;28;20396;-59
2023/05/12 04:26:42;;;;;;;7.07;4.13;;;15.30;47.80;;;;;;5088191;28;20701;-59
2023/05/12 04:29:07;;;;;;;8.43;4.35;;;15.70;42.20;;;;;;5112572;28;20032;-64
2023/05/12 04:31:33;;;;;;;5.75;4.20;;;16.30;44.10;;;;;;5090671;28;20020;-59
2023/05/12 04:33:58;;;;;;;7.80;4.22;;;16.50;38.70;;;;;;5112907;28;20484;-59
2023/05/12 04:36:24;;;;;;;6.28;4.13;;;16.70;36.70;;;;;;5092923;28;20032;-59
2023/05/12 04:38:50;;;;;;;6.38;3.88;;;17.20;33.80;;;;;;5092413;28;20061;-59
2023/05/12 04:41:15;;;;;;;7.78;4.80;;;17.70;35.90;;;;;;5111992;28;20376;-59
2023/05/12 04:43:41;;;;;;;6.40;4.55;;;18.10;29.80;;;;;;5090781;28;20060;-59
2023/05/12 04:46:06;;;;;;;9.88;4.40;;;18.40;29.20;;;;;;5112242;28;20027;-58
2023/05/12 04:48:32;;;;;;;8.60;4.55;;;18.50;25.60;;;;;;5090518;28;20024;-60
2023/05/12 04:50:59;;;;;;;7.13;4.35;;;18.40;25.40;;;;;;5109393;28;20105;-59
2023/05/12 04:53:24;;;;;;;6.85;4.20;;;18.60;27.90;;;;;;5093191;28;20035;-59
2023/05/12 04:55:50;;;;;;;7.47;4.60;;;18.90;24.40;;;;;;5110299;28;20023;-59
2023/05/12 04:58:15;;;;;;;7.55;4.10;;;19.10;23.10;;;;;;5090774;28;20024;-59
2023/05/12 05:00:41;;;;;;;7.88;4.55;;;19.40;25.70;;;;;;5111477;28;20275;-59
2023/05/12 05:03:07;;;;;;;8.32;4.30;;;19.50;23.70;;;;;;5090376;28;20064;-59
2023/05/12 05:05:32;;;;;;;6.93;3.50;;;20.00;24.40;;;;;;5096682;28;20024;-59
2023/05/12 05:07:58;;;;;;;6.75;3.72;;;20.20;21.10;;;;;;5096450;28;20476;-59
2023/05/12 05:10:24;;;;;;;6.43;4.30;;;20.60;21.40;;;;;;5111372;28;20414;-59
2023/05/12 05:12:49;;;;;;;7.88;3.85;;;20.60;17.40;;;;;;5089953;28;20308;-59
2023/05/12 05:15:15;;;;;;;6.03;4.07;;;21.00;20.00;;;;;;5109178;28;20074;-59
2023/05/12 05:17:41;;;;;;;6.40;3.45;;;21.20;18.10;;;;;;5088539;28;20141;-59
2023/05/12 05:20:08;;;;;;;5.55;3.70;;;21.70;18.80;;;;;;5108718;28;20016;-59
2023/05/12 05:22:33;;;;;;;23.50;5.85;;;21.90;15.50;;;;;;5098681;28;20039;-60
2023/05/12 05:24:59;;;;;;;8.10;4.30;;;21.90;14.40;;;;;;5091758;28;20115;-59
2023/05/12 05:27:24;;;;;;;6.45;3.72;;;22.00;14.70;;;;;;5108200;28;20384;-60
2023/05/12 05:29:50;;;;;;;5.47;3.58;;;22.40;14.00;;;;;;5090996;28;20028;-59
2023/05/12 05:32:15;;;;;;;4.63;3.60;;;23.20;15.00;;;;;;5108708;28;20028;-58
2023/05/12 05:34:41;;;;;;;6.50;3.80;;;23.50;13.60;;;;;;5091589;28;20041;-59
2023/05/12 05:37:06;;;;;;;6.60;3.50;;;23.70;12.70;;;;;;5108672;28;20076;-59
2023/05/12 05:39:32;;;;;;;6.88;4.32;;;23.90;10.70;;;;;;5111490;28;20066;-59
2023/05/12 05:41:57;;;;;;;5.13;3.40;;;23.80;10.70;;;;;;5094853;28;20411;-57
2023/05/12 05:44:23;;;;;;;6.05;3.40;;;24.10;10.90;;;;;;5111499;28;20019;-57
2023/05/12 05:46:49;;;;;;;7.45;3.90;;;24.50;10.90;;;;;;5093398;28;20039;-57
2023/05/12 05:49:15;;;;;;;7.07;4.15;;;24.80;7.00;;;;;;5111046;28;20024;-56
2023/05/12 05:51:41;;;;;;;5.10;3.97;;;24.30;6.70;;;;;;5092132;28;20398;-57
2023/05/12 05:54:06;;;;;;;13.32;4.57;;;23.90;8.70;;;;;;5111182;28;20140;-57
2023/05/12 05:56:34;;;;;;;9.57;4.65;;;24.20;7.30;;;;;;5090926;28;20036;-57
2023/05/12 05:59:02;;;;;;;8.07;4.20;;;24.00;8.40;;;;;;5111113;28;20077;-56
2023/05/12 06:01:27;;;;;;;6.95;4.40;;;24.10;7.30;;;;;;5089787;28;20456;-57
2023/05/12 06:03:53;;;;;;;6.57;3.97;;;23.90;8.50;;;;;;5110863;28;20054;-57
2023/05/12 06:06:18;;;;;;;7.57;3.78;;;24.50;7.80;;;;;;5087694;28;20537;-57
2023/05/12 06:08:44;;;;;;;7.68;3.90;;;25.40;6.70;;;;;;5108759;28;20043;-57
2023/05/12 06:11:10;;;;;;;6.55;3.92;;;25.40;6.70;;;;;;5090692;28;20020;-60
2023/05/12 06:13:36;;;;;;;4.63;3.50;;;26.30;4.60;;;;;;5089175;28;20101;-57
2023/05/12 06:16:02;;;;;;;7.32;4.40;;;25.50;5.50;;;;;;5109825;28;20028;-56
2023/05/12 06:18:27;;;;;;;5.63;4.28;;;25.40;4.90;;;;;;5088935;28;20027;-57
2023/05/12 06:20:53;;;;;;;6.43;4.30;;;24.80;5.30;;;;;;5110245;28;20028;-57
2023/05/12 06:23:18;;;;;;;10.55;4.65;;;25.00;5.10;;;;;;5088784;28;20127;-57
2023/05/12 06:25:44;;;;;;;5.55;3.80;;;25.60;4.70;;;;;;5101371;28;20044;-57
2023/05/12 06:28:09;;;;;;;7.30;4.35;;;26.20;5.00;;;;;;5092542;28;20031;-58
2023/05/12 06:30:35;;;;;;;9.57;4.40;;;26.10;3.30;;;;;;5109653;28;20027;-56
2023/05/12 06:33:01;;;;;;;9.65;4.43;;;25.80;3.50;;;;;;5088562;28;20403;-57
2023/05/12 06:35:26;;;;;;;6.93;3.92;;;25.50;4.00;;;;;;5109678;28;20028;-58
2023/05/12 06:37:53;;;;;;;6.28;4.30;;;26.20;3.90;;;;;;5088271;28;20048;-57
2023/05/12 06:40:18;;;;;;;8.90;4.38;;;26.50;2.60;;;;;;5109390;28;20042;-57
2023/05/12 06:42:44;;;;;;;5.38;4.15;;;26.50;3.50;;;;;;5088420;28;20035;-58
2023/05/12 06:45:11;;;;;;;4.55;3.50;;;26.30;3.10;;;;;;5109273;28;20038;-57
2023/05/12 06:47:37;;;;;;;5.60;3.95;;;27.10;2.20;;;;;;5099028;28;20020;-59
2023/05/12 06:50:03;;;;;;;6.45;4.40;;;26.90;2.50;;;;;;5090161;28;20458;-57
2023/05/12 06:52:28;;;;;;;5.53;4.18;;;26.70;2.40;;;;;;5107586;28;20067;-58
2023/05/12 06:54:54;;;;;;;7.03;4.22;;;26.60;2.80;;;;;;5090070;28;20024;-57
2023/05/12 06:57:19;;;;;;;8.15;4.50;;;26.30;2.30;;;;;;5107042;28;20055;-57
2023/05/12 06:59:45;;;;;;;7.60;4.07;;;26.20;2.80;;;;;;5090201;28;20060;-57
2023/05/12 07:02:10;;;;;;;8.15;4.28;;;26.80;2.40;;;;;;5106964;28;20466;-59
2023/05/12 07:04:36;;;;;;;6.25;4.20;;;27.10;1.90;;;;;;5108049;28;20115;-57
2023/05/12 07:07:01;;;;;;;7.22;4.30;;;27.20;1.70;;;;;;5087257;28;20035;-57
2023/05/12 07:09:27;;;;;;;9.50;4.30;;;26.40;2.50;;;;;;5109834;28;20088;-58
2023/05/12 07:11:53;;;;;;;7.28;3.67;;;25.90;2.70;;;;;;5092814;28;20511;-57
2023/05/12 07:14:18;;;;;;;5.20;3.78;;;25.90;3.30;;;;;;5109752;28;20024;-58
2023/05/12 07:16:44;;;;;;;7.20;3.95;;;26.00;3.00;;;;;;5091159;28;20391;-58
2023/05/12 07:19:09;;;;;;;8.27;3.47;;;27.40;2.60;;;;;;5109708;28;20114;-57
2023/05/12 07:21:36;;;;;;;7.07;4.13;;;28.60;1.90;;;;;;5089889;28;20032;-57
2023/05/12 07:24:01;;;;;;;6.65;4.38;;;28.80;1.20;;;;;;5109484;28;20034;-57
2023/05/12 07:26:28;;;;;;;5.50;3.90;;;28.10;1.00;;;;;;5088403;28;20044;-57
2023/05/12 07:28:53;;;;;;;8.23;3.80;;;27.70;1.80;;;;;;5109493;28;20259;-60
2023/05/12 07:31:19;;;;;;;10.55;3.90;;;27.90;1.70;;;;;;5089431;28;20032;-57
2023/05/12 07:33:45;;;;;;;7.40;4.03;;;28.00;1.00;;;;;;5088974;28;20712;-57
2023/05/12 07:36:10;;;;;;;8.05;4.57;;;27.80;1.50;;;;;;5108476;28;20110;-57
2023/05/12 07:38:36;;;;;;;5.88;3.80;;;27.50;1.70;;;;;;5086668;28;20081;-57
2023/05/12 07:41:02;;;;;;;5.22;3.45;;;27.30;2.60;;;;;;5108279;28;20029;-58
2023/05/12 07:43:27;;;;;;;7.95;4.10;;;28.60;1.00;;;;;;5087089;28;20448;-60
2023/05/12 07:45:54;;;;;;;5.88;3.95;;;28.40;1.10;;;;;;5108457;28;20025;-58
2023/05/12 07:48:20;;;;;;;6.90;3.53;;;29.20;1.00;;;;;;5087253;28;20104;-58
2023/05/12 07:50:46;;;;;;;6.65;3.75;;;30.30;1.00;;;;;;5108406;28;20110;-58
2023/05/12 07:53:11;;;;;;;5.45;3.30;;;30.30;1.00;;;;;;5087525;28;20517;-58
2023/05/12 07:55:37;;;;;;;5.15;3.20;;;30.10;1.00;;;;;;5108412;28;20026;-58
2023/05/12 07:58:02;;;;;;;5.78;3.58;;;30.50;1.00;;;;;;5087278;28;20086;-57
2023/05/12 08:00:28;;;;;;;4.85;3.70;;;29.90;1.00;;;;;;5106766;28;20036;-58
2023/05/12 08:02:54;;;;;;;5.95;3.50;;;28.20;1.00;;;;;;5087214;28;20036;-58
2023/05/12 08:05:20;;;;;;;5.50;3.33;;;27.40;1.00;;;;;;5097745;28;20073;-58
2023/05/12 08:07:46;;;;;;;8.38;3.53;;;27.80;1.00;;;;;;5098578;28;20321;-57
2023/05/12 08:10:11;;;;;;;4.50;2.78;;;28.00;1.00;;;;;;5089002;28;20107;-57
2023/05/12 08:12:39;;;;;;;3.60;3.05;;;28.20;1.00;;;;;;5106272;28;20540;-58
2023/05/12 08:15:05;;;;;;;6.30;3.20;;;27.90;1.00;;;;;;5088910;28;20028;-57
2023/05/12 08:17:30;;;;;;;8.23;3.88;;;28.70;1.00;;;;;;5106252;28;20024;-58
2023/05/12 08:19:56;;;;;;;5.78;3.42;;;26.50;1.00;;;;;;5089106;28;20021;-57
2023/05/12 08:22:21;;;;;;;8.45;3.75;;;25.70;1.00;;;;;;5105901;28;20055;-57
2023/05/12 08:24:47;;;;;;;3.83;2.92;;;25.40;1.00;;;;;;5088665;28;20024;-57
2023/05/12 08:27:12;;;;;;;7.40;3.72;;;25.50;1.00;;;;;;5106798;28;20035;-57
2023/05/12 08:29:38;;;;;;;5.05;3.17;;;25.70;1.00;;;;;;5108681;28;20036;-57
2023/05/12 08:32:04;;;;;;;5.45;3.10;;;25.70;1.00;;;;;;5093026;28;20127;-57
2023/05/12 08:34:29;;;;;;;4.28;2.80;;;24.60;1.00;;;;;;5108758;28;20502;-57
2023/05/12 08:36:55;;;;;;;7.78;3.10;;;24.10;2.30;;;;;;5091839;28;20102;-57
2023/05/12 08:39:21;;;;;;;5.35;3.20;;;24.40;2.00;;;;;;5108649;28;20032;-57
2023/05/12 08:42:08;;;;;;;6.90;3.25;;;24.50;1.20;;;;;;5090496;28;20067;-57
2023/05/12 08:44:34;;;;;;;5.82;3.15;;;24.50;2.20;;;;;;5108637;28;20050;-57
2023/05/12 08:47:02;;;;;;;4.10;3.10;;;24.60;1.40;;;;;;5092276;28;20032;-57
2023/05/12 08:49:31;;;;;;;4.78;3.03;;;23.70;1.90;;;;;;5108507;28;20032;-56
2023/05/12 08:52:00;;;;;;;4.82;3.55;;;23.50;2.60;;;;;;5091406;28;20028;-57
2023/05/12 08:54:27;;;;;;;6.50;3.42;;;23.50;2.60;;;;;;5111589;28;20019;-57
2023/05/12 08:56:53;;;;;;;4.47;3.33;;;22.90;2.90;;;;;;5094844;28;20049;-58
2023/05/12 08:59:19;;;;;;;3.60;2.70;;;22.70;3.00;;;;;;5110832;28;20065;-57
2023/05/12 09:01:46;;;;;;;5.28;3.08;;;22.90;3.10;;;;;;5093740;28;20027;-59
2023/05/12 09:04:14;;;;;;;7.05;3.38;;;23.20;2.90;;;;;;5110862;28;20080;-56
2023/05/12 09:06:43;;;;;;;8.05;3.35;;;23.20;1.80;;;;;;5089419;28;21000;-58
2023/05/12 09:09:09;;;;;;;8.25;3.47;;;23.20;2.10;;;;;;5110622;28;20480;-57
2023/05/12 09:11:34;;;;;;;4.18;2.80;;;23.50;1.00;;;;;;5092157;28;20552;-57
2023/05/12 09:14:05;;;;;;;3.88;2.75;;;23.10;1.10;;;;;;5112140;28;20032;-57
2023/05/12 09:16:33;;;;;;;7.35;3.30;;;22.90;1.40;;;;;;5072361;28;20543;-57
2023/05/12 09:19:01;;;;;;;3.17;2.75;;;22.80;1.80;;;;;;5111983;28;20208;-56
2023/05/12 09:21:27;;;;;;;4.85;3.05;;;22.30;1.30;;;;;;5090636;28;20028;-56
2023/05/12 09:23:56;;;;;;;4.35;2.78;;;22.40;2.00;;;;;;5111820;28;20027;-57
2023/05/12 09:26:23;;;;;;;9.48;4.05;;;22.80;1.20;;;;;;5089343;28;20059;-57
2023/05/12 09:28:51;;;;;;;8.32;2.97;;;23.20;1.10;;;;;;5111967;27;20030;-57
2023/05/12 09:31:17;;;;;;;5.00;2.70;;;23.40;1.00;;;;;;5091342;27;20158;-57
2023/05/12 09:33:42;;;;;;;5.95;2.75;;;23.60;1.00;;;;;;5109326;28;20026;-57
2023/05/12 09:36:08;;;;;;;6.13;2.70;;;23.80;1.00;;;;;;5091632;28;20031;-57
2023/05/12 09:38:33;;;;;;;7.18;2.97;;;23.50;1.00;;;;;;5090104;28;20062;-57
2023/05/12 09:40:59;;;;;;;3.17;2.67;;;23.20;1.00;;;;;;5110601;28;20089;-57
2023/05/12 09:43:24;;;;;;;5.25;2.90;;;23.30;1.00;;;;;;5089347;28;20036;-58
2023/05/12 09:45:50;;;;;;;5.70;3.25;;;23.30;1.00;;;;;;5110477;28;20077;-57
2023/05/12 09:48:16;;;;;;;5.18;2.67;;;23.10;1.00;;;;;;5089532;28;20377;-57
2023/05/12 09:50:43;;;;;;;5.68;3.25;;;23.10;1.00;;;;;;5110463;28;20103;-57
2023/05/12 09:53:09;;;;;;;4.97;2.78;;;22.90;1.00;;;;;;5089355;28;20028;-56
2023/05/12 09:55:35;;;;;;;5.88;2.65;;;22.60;1.00;;;;;;5110700;28;20019;-57
2023/05/12 09:58:05;;;;;;;4.20;2.67;;;22.40;1.00;;;;;;5089325;28;20042;-57
2023/05/12 10:00:31;;;;;;;11.30;2.83;;;22.50;1.00;;;;;;5110837;28;20059;-57
2023/05/12 10:02:57;;;;;;;5.97;3.08;;;22.50;1.00;;;;;;5089247;27;20062;-57
2023/05/12 10:05:23;;;;;;;9.90;3.13;;;22.40;1.20;;;;;;5098513;28;20111;-65
2023/05/12 10:07:50;;;;;;;5.03;2.35;;;22.30;2.10;;;;;;5101007;28;20459;-52
2023/05/12 10:10:18;;;;;;;2.58;2.22;;;22.20;1.30;;;;;;5090798;28;20043;-53
2023/05/12 10:12:45;;;;;;;4.35;2.70;;;22.20;1.00;;;;;;5096967;28;20424;-47
2023/05/12 10:15:11;;;;;;;4.38;2.80;;;22.10;1.50;;;;;;5109983;28;20062;-48
2023/05/12 10:17:40;;;;;;;6.13;2.90;;;21.80;2.20;;;;;;5099494;28;20028;-47
2023/05/12 10:20:07;;;;;;;8.82;3.25;;;21.80;2.50;;;;;;5090405;28;20016;-48
2023/05/12 10:22:33;;;;;;;7.03;3.33;;;21.70;2.50;;;;;;5108192;28;20034;-48
2023/05/12 10:25:01;;;;;;;5.47;3.10;;;21.30;3.10;;;;;;5091916;28;20063;-51
2023/05/12 10:27:28;;;;;;;8.75;2.83;;;21.30;3.80;;;;;;5108613;28;20031;-51
2023/05/12 10:29:55;;;;;;;5.30;3.53;;;21.50;4.30;;;;;;5090325;28;20031;-51
2023/05/12 10:32:20;;;;;;;6.32;3.17;;;21.60;4.00;;;;;;5107776;28;20050;-49
2023/05/12 10:34:46;;;;;;;4.50;2.88;;;21.60;3.30;;;;;;5090501;28;20021;-50
2023/05/12 10:37:12;;;;;;;3.60;2.60;;;21.50;2.70;;;;;;5107557;28;20057;-52
2023/05/12 10:39:47;;;;;;;5.03;2.90;;;21.40;2.80;;;;;;5110290;28;20493;-53
2023/05/12 10:42:16;;;;;;;7.80;2.83;;;21.50;4.20;;;;;;5082252;28;20024;-52
2023/05/12 10:44:55;;;;;;;5.70;2.92;;;21.50;3.70;;;;;;5110418;28;20124;-50
2023/05/12 10:47:34;;;;;;;4.05;2.83;;;21.50;4.00;;;;;;5096776;28;20070;-51
2023/05/12 10:50:00;;;;;;;5.97;2.83;;;21.50;4.30;;;;;;5069523;28;20040;-51
2023/05/12 10:52:25;;;;;;;6.97;2.70;;;21.50;3.20;;;;;;5106802;28;20035;-50
2023/05/12 10:54:59;;;;;;;6.35;3.42;;;21.40;2.70;;;;;;5090262;28;20036;-55
2023/05/12 10:57:25;;;;;;;3.85;3.00;;;21.30;3.90;;;;;;5085603;28;20118;-52
2023/05/12 11:00:00;;;;;;;4.68;2.75;;;21.20;4.00;;;;;;5089961;28;20035;-54
2023/05/12 11:02:29;;;;;;;9.68;3.03;;;21.30;4.50;;;;;;5085635;28;20090;-52
2023/05/12 11:04:59;;;;;;;6.32;3.55;;;21.10;4.70;;;;;;5090115;28;20045;-51
2023/05/12 11:07:27;;;;;;;5.38;3.17;;;21.10;4.60;;;;;;5107876;28;20084;-52
2023/05/12 11:09:55;;;;;;;9.45;3.10;;;21.00;4.30;;;;;;5089705;28;20035;-51
2023/05/12 11:12:20;;;;;;;4.15;3.20;;;21.00;5.00;;;;;;5107137;28;20040;-54
2023/05/12 11:14:46;;;;;;;5.07;2.85;;;21.00;4.50;;;;;;5088483;28;20024;-54
2023/05/12 11:17:13;;;;;;;6.20;2.67;;;21.10;4.70;;;;;;5106218;28;20031;-52
2023/05/12 11:19:43;;;;;;;5.10;3.30;;;21.20;5.20;;;;;;5110006;28;20027;-49
2023/05/12 11:22:11;;;;;;;7.10;3.40;;;21.30;4.40;;;;;;5093937;28;20032;-53
2023/05/12 11:24:38;;;;;;;4.85;3.05;;;21.20;4.20;;;;;;5109478;28;20024;-53
2023/05/12 11:27:04;;;;;;;6.85;3.15;;;21.10;4.70;;;;;;5093398;28;20139;-54
2023/05/12 11:29:30;;;;;;;4.80;3.00;;;21.10;4.70;;;;;;5109492;28;20556;-52
2023/05/12 11:31:56;;;;;;;5.65;2.88;;;21.10;4.30;;;;;;5092683;28;20035;-52
2023/05/12 11:34:23;;;;;;;5.63;3.10;;;21.10;4.70;;;;;;5109473;28;20032;-52
2023/05/12 11:36:55;;;;;;;7.15;3.10;;;21.20;4.50;;;;;;5091722;28;20027;-48
2023/05/12 11:39:22;;;;;;;4.22;2.90;;;21.10;3.70;;;;;;5109371;28;20018;-52
2023/05/12 11:41:49;;;;;;;4.85;2.60;;;21.10;4.50;;;;;;5091193;28;20047;-51
2023/05/12 11:44:19;;;;;;;6.13;3.28;;;21.10;4.30;;;;;;5109239;28;20034;-51
2023/05/12 11:47:10;;;;;;;4.70;2.85;;;21.10;3.90;;;;;;5072637;28;20031;-53
2023/05/12 11:49:44;;;;;;;5.38;2.65;;;21.20;3.40;;;;;;5109373;28;20472;-53
2023/05/12 11:52:10;;;;;;;7.40;3.00;;;21.20;4.70;;;;;;5080628;28;20123;-49
2023/05/12 11:54:36;;;;;;;4.05;2.80;;;21.30;4.10;;;;;;5108067;28;20111;-53
2023/05/12 11:57:02;;;;;;;3.50;2.75;;;21.30;3.70;;;;;;5093091;28;20450;-52
2023/05/12 11:59:30;;;;;;;3.97;2.70;;;21.40;3.30;;;;;;5109030;28;20031;-50
2023/05/12 12:02:00;;;;;;;3.88;2.80;;;21.40;3.70;;;;;;5092009;28;20131;-53
2023/05/12 12:04:39;;;;;;;4.40;2.50;;;21.30;3.50;;;;;;5109038;28;20036;-53
2023/05/12 12:07:05;;;;;;;7.20;3.08;;;21.20;2.60;;;;;;5075999;28;20035;-54
2023/05/12 12:09:32;;;;;;;6.22;2.88;;;21.30;2.70;;;;;;5109044;28;20039;-52
2023/05/12 12:11:59;;;;;;;4.93;3.00;;;21.20;2.60;;;;;;5092138;28;20566;-53
2023/05/12 12:14:24;;;;;;;4.45;2.65;;;21.10;2.90;;;;;;5108983;28;20651;-52
2023/05/12 12:16:50;;;;;;;7.70;3.30;;;21.00;2.50;;;;;;5091321;28;20044;-51
2023/05/12 12:19:15;;;;;;;3.80;2.60;;;20.90;2.60;;;;;;5109070;28;20028;-54
2023/05/12 12:21:41;;;;;;;3.95;2.90;;;21.00;2.20;;;;;;5090233;28;20533;-52
2023/05/12 12:24:07;;;;;;;8.13;2.72;;;21.10;2.90;;;;;;5108771;28;20020;-53
2023/05/12 12:26:32;;;;;;;6.05;2.35;;;21.30;2.60;;;;;;5088610;28;20492;-50
2023/05/12 12:28:58;;;;;;;6.05;2.60;;;21.40;2.50;;;;;;5111562;28;20026;-52
2023/05/12 12:31:23;;;;;;;5.63;2.88;;;21.50;2.50;;;;;;5091387;28;20054;-52
2023/05/12 12:33:49;;;;;;;6.93;3.10;;;21.50;2.40;;;;;;5112678;28;20028;-48
2023/05/12 12:36:14;;;;;;;6.18;2.70;;;21.50;2.40;;;;;;5092675;28;20459;-53
2023/05/12 12:38:39;;;;;;;7.70;2.88;;;21.40;1.90;;;;;;5090471;28;20031;-50
2023/05/12 12:41:06;;;;;;;7.05;3.17;;;21.40;2.70;;;;;;5111772;28;20115;-49
2023/05/12 12:43:32;;;;;;;4.35;2.80;;;21.40;2.00;;;;;;5090558;28;20248;-51
2023/05/12 12:45:57;;;;;;;8.48;2.75;;;21.50;2.90;;;;;;5111721;28;20285;-54
2023/05/12 12:48:23;;;;;;;4.60;2.63;;;21.50;1.90;;;;;;5090997;28;20032;-53